sensor_id;sensor_type;location;lat;lon;timestamp;temperature;humidity
1778;DHT22;886;50.082;8.222;2023-05-07T00:02:10;17.30;99.90
1778;DHT22;886;50.082;8.222;2023-05-07T00:04:38;17.20;99.90
1778;DHT22;886;50.082;8.222;2023-05-07T00:07:05;17.30;99.90
1778;DHT22;886;50.082;8.222;2023-05-07T00:09:34;17.40;99.80
1778;DHT22;886;50.082;8.222;2023-05-07T00:12:01;17.00;99.90
1778;DHT22;886;50.082;8.222;2023-05-07T00:14:30;16.70;99.90
1778;DHT22;886;50.082;8.222;2023-05-07T00:16:57;16.70;99.90
1778;DHT22;886;50.082;8.222;2023-05-07T00:19:25;16.70;99.90
1778;DHT22;886;50.082;8.222;2023-05-07T00:21:53;16.80;99.90
1778;DHT22;886;50.082;8.222;2023-05-07T00:24:21;16.80;99.90
1778;DHT22;886;50.082;8.222;2023-05-07T00:26:49;16.90;99.90
1778;DHT22;886;50.082;8.222;2023-05-07T00:29:17;17.00;99.90
1778;DHT22;886;50.082;8.222;2023-05-07T00:31:44;17.10;99.90
1778;DHT22;886;50.082;8.222;2023-05-07T00:34:11;17.10;99.90
1778;DHT22;886;50.082;8.222;2023-05-07T00:36:38;17.20;99.90
1778;DHT22;886;50.082;8.222;2023-05-07T00:39:05;17.20;99.90
1778;DHT22;886;50.082;8.222;2023-05-07T00:41:33;17.20;99.90
1778;DHT22;886;50.082;8.222;2023-05-07T00:44:20;17.10;99.90
1778;DHT22;886;50.082;8.222;2023-05-07T00:46:48;17.10;99.90
1778;DHT22;886;50.082;8.222;2023-05-07T00:49:16;17.10;99.90
1778;DHT22;886;50.082;8.222;2023-05-07T00:51:45;17.10;99.90
1778;DHT22;886;50.082;8.222;2023-05-07T00:54:13;17.00;99.90
1778;DHT22;886;50.082;8.222;2023-05-07T00:56:41;17.00;99.90
1778;DHT22;886;50.082;8.222;2023-05-07T00:59:08;17.00;99.90
1778;DHT22;886;50.082;8.222;2023-05-07T01:01:37;16.80;99.90
1778;DHT22;886;50.082;8.222;2023-05-07T01:04:04;16.80;99.90
1778;DHT22;886;50.082;8.222;2023-05-07T01:06:33;16.80;99.90
1778;DHT22;886;50.082;8.222;2023-05-07T01:09:01;17.00;99.90
1778;DHT22;886;50.082;8.222;2023-05-07T01:11:31;17.00;99.90
1778;DHT22;886;50.082;8.222;2023-05-07T01:13:59;16.90;99.90
1778;DHT22;886;50.082;8.222;2023-05-07T01:16:26;16.90;99.90
1778;DHT22;886;50.082;8.222;2023-05-07T01:18:55;16.90;99.90
1778;DHT22;886;50.082;8.222;2023-05-07T01:21:25;16.70;99.90
1778;DHT22;886;50.082;8.222;2023-05-07T01:23:55;16.70;99.90
1778;DHT22;886;50.082;8.222;2023-05-07T01:26:23;16.80;99.90
1778;DHT22;886;50.082;8.222;2023-05-07T01:28:50;16.80;99.90
1778;DHT22;886;50.082;8.222;2023-05-07T01:31:17;16.80;99.90
1778;DHT22;886;50.082;8.222;2023-05-07T01:33:46;16.80;99.90
1778;DHT22;886;50.082;8.222;2023-05-07T01:36:33;16.90;99.90
1778;DHT22;886;50.082;8.222;2023-05-07T01:39:03;16.90;99.90
1778;DHT22;886;50.082;8.222;2023-05-07T01:41:33;17.00;99.90
1778;DHT22;886;50.082;8.222;2023-05-07T01:44:01;16.90;99.90
1778;DHT22;886;50.082;8.222;2023-05-07T01:46:31;16.90;99.90
1778;DHT22;886;50.082;8.222;2023-05-07T01:48:59;16.90;99.90
1778;DHT22;886;50.082;8.222;2023-05-07T01:51:27;16.90;99.90
1778;DHT22;886;50.082;8.222;2023-05-07T01:53:54;17.00;99.90
1778;DHT22;886;50.082;8.222;2023-05-07T01:56:22;16.90;99.90
1778;DHT22;886;50.082;8.222;2023-05-07T01:58:51;16.90;99.90
1778;DHT22;886;50.082;8.222;2023-05-07T02:01:18;16.90;99.90
1778;DHT22;886;50.082;8.222;2023-05-07T02:03:46;16.90;99.90
1778;DHT22;886;50.082;8.222;2023-05-07T02:06:13;16.90;99.90
1778;DHT22;886;50.082;8.222;2023-05-07T02:08:41;16.90;99.90
1778;DHT22;886;50.082;8.222;2023-05-07T02:11:08;16.70;99.90
1778;DHT22;886;50.082;8.222;2023-05-07T02:13:36;16.70;99.90
1778;DHT22;886;50.082;8.222;2023-05-07T02:16:04;16.70;99.90
1778;DHT22;886;50.082;8.222;2023-05-07T02:18:33;16.70;99.90
1778;DHT22;886;50.082;8.222;2023-05-07T02:21:00;16.80;99.90
1778;DHT22;886;50.082;8.222;2023-05-07T02:23:27;16.80;99.90
1778;DHT22;886;50.082;8.222;2023-05-07T02:25:54;16.80;99.90
1778;DHT22;886;50.082;8.222;2023-05-07T02:28:22;16.90;99.90
1778;DHT22;886;50.082;8.222;2023-05-07T02:30:50;16.90;99.90
1778;DHT22;886;50.082;8.222;2023-05-07T02:33:18;17.00;99.90
1778;DHT22;886;50.082;8.222;2023-05-07T02:35:46;16.90;99.90
1778;DHT22;886;50.082;8.222;2023-05-07T02:38:13;16.90;99.90
1778;DHT22;886;50.082;8.222;2023-05-07T02:40:40;16.80;99.90
1778;DHT22;886;50.082;8.222;2023-05-07T02:43:07;16.70;99.90
1778;DHT22;886;50.082;8.222;2023-05-07T02:45:35;16.70;99.90
1778;DHT22;886;50.082;8.222;2023-05-07T02:48:05;16.70;99.90
1778;DHT22;886;50.082;8.222;2023-05-07T02:50:33;16.80;99.90
1778;DHT22;886;50.082;8.222;2023-05-07T02:53:00;16.90;99.90
1778;DHT22;886;50.082;8.222;2023-05-07T02:55:27;16.80;99.90
1778;DHT22;886;50.082;8.222;2023-05-07T02:57:55;16.70;99.90
1778;DHT22;886;50.082;8.222;2023-05-07T03:00:22;16.70;99.90
1778;DHT22;886;50.082;8.222;2023-05-07T03:02:50;16.60;99.90
1778;DHT22;886;50.082;8.222;2023-05-07T03:05:18;16.60;99.90
1778;DHT22;886;50.082;8.222;2023-05-07T03:07:46;16.60;99.90
1778;DHT22;886;50.082;8.222;2023-05-07T03:10:14;16.60;99.90
1778;DHT22;886;50.082;8.222;2023-05-07T03:12:41;16.60;99.90
1778;DHT22;886;50.082;8.222;2023-05-07T03:15:10;16.60;99.90
1778;DHT22;886;50.082;8.222;2023-05-07T03:17:39;16.60;99.90
1778;DHT22;886;50.082;8.222;2023-05-07T03:20:08;16.70;99.90
1778;DHT22;886;50.082;8.222;2023-05-07T03:22:38;16.60;99.90
1778;DHT22;886;50.082;8.222;2023-05-07T03:25:07;16.60;99.90
1778;DHT22;886;50.082;8.222;2023-05-07T03:27:34;16.60;99.90
1778;DHT22;886;50.082;8.222;2023-05-07T03:30:02;16.50;99.90
1778;DHT22;886;50.082;8.222;2023-05-07T03:32:30;16.60;99.90
1778;DHT22;886;50.082;8.222;2023-05-07T03:35:14;16.60;99.90
1778;DHT22;886;50.082;8.222;2023-05-07T03:37:43;16.60;99.90
1778;DHT22;886;50.082;8.222;2023-05-07T03:40:11;16.50;99.90
1778;DHT22;886;50.082;8.222;2023-05-07T03:42:40;16.50;99.90
1778;DHT22;886;50.082;8.222;2023-05-07T03:45:08;16.50;99.90
1778;DHT22;886;50.082;8.222;2023-05-07T03:47:35;16.50;99.90
1778;DHT22;886;50.082;8.222;2023-05-07T03:50:03;16.40;99.90
1778;DHT22;886;50.082;8.222;2023-05-07T03:52:30;16.30;99.90
1778;DHT22;886;50.082;8.222;2023-05-07T03:54:59;16.30;99.90
1778;DHT22;886;50.082;8.222;2023-05-07T03:57:26;16.40;99.90
1778;DHT22;886;50.082;8.222;2023-05-07T03:59:53;16.30;99.90
1778;DHT22;886;50.082;8.222;2023-05-07T04:02:21;16.30;99.90
1778;DHT22;886;50.082;8.222;2023-05-07T04:04:48;16.30;99.90
1778;DHT22;886;50.082;8.222;2023-05-07T04:07:16;16.40;99.90
1778;DHT22;886;50.082;8.222;2023-05-07T04:09:43;16.50;99.90
1778;DHT22;886;50.082;8.222;2023-05-07T04:12:12;16.50;99.90
1778;DHT22;886;50.082;8.222;2023-05-07T04:14:40;16.60;99.90
1778;DHT22;886;50.082;8.222;2023-05-07T04:17:07;16.60;99.90
1778;DHT22;886;50.082;8.222;2023-05-07T04:19:36;16.60;99.90
1778;DHT22;886;50.082;8.222;2023-05-07T04:22:04;16.60;99.90
1778;DHT22;886;50.082;8.222;2023-05-07T04:24:31;16.60;99.90
1778;DHT22;886;50.082;8.222;2023-05-07T04:27:00;16.50;99.90
1778;DHT22;886;50.082;8.222;2023-05-07T04:29:28;16.40;99.90
1778;DHT22;886;50.082;8.222;2023-05-07T04:31:56;16.40;99.90
1778;DHT22;886;50.082;8.222;2023-05-07T04:34:25;16.30;99.90
1778;DHT22;886;50.082;8.222;2023-05-07T04:36:53;16.30;99.90
1778;DHT22;886;50.082;8.222;2023-05-07T04:39:20;16.30;99.90
1778;DHT22;886;50.082;8.222;2023-05-07T04:41:47;16.30;99.90
1778;DHT22;886;50.082;8.222;2023-05-07T04:44:14;16.30;99.90
1778;DHT22;886;50.082;8.222;2023-05-07T04:46:42;16.40;99.90
1778;DHT22;886;50.082;8.222;2023-05-07T04:49:10;16.40;99.90
1778;DHT22;886;50.082;8.222;2023-05-07T04:51:37;16.50;99.90
1778;DHT22;886;50.082;8.222;2023-05-07T04:54:05;16.40;99.90
1778;DHT22;886;50.082;8.222;2023-05-07T04:56:32;16.40;99.90
1778;DHT22;886;50.082;8.222;2023-05-07T04:59:00;16.50;99.90
1778;DHT22;886;50.082;8.222;2023-05-07T05:01:27;16.60;99.90
1778;DHT22;886;50.082;8.222;2023-05-07T05:03:56;16.60;99.90
1778;DHT22;886;50.082;8.222;2023-05-07T05:06:23;16.50;99.90
1778;DHT22;886;50.082;8.222;2023-05-07T05:08:51;16.60;99.90
1778;DHT22;886;50.082;8.222;2023-05-07T05:11:18;16.60;99.90
1778;DHT22;886;50.082;8.222;2023-05-07T05:13:45;16.60;99.90
1778;DHT22;886;50.082;8.222;2023-05-07T05:16:16;16.60;99.90
1778;DHT22;886;50.082;8.222;2023-05-07T05:18:43;16.50;99.90
1778;DHT22;886;50.082;8.222;2023-05-07T05:21:12;16.50;99.90
1778;DHT22;886;50.082;8.222;2023-05-07T05:23:39;16.50;99.90
1778;DHT22;886;50.082;8.222;2023-05-07T05:26:06;16.50;99.90
1778;DHT22;886;50.082;8.222;2023-05-07T05:28:34;16.60;99.90
1778;DHT22;886;50.082;8.222;2023-05-07T05:31:01;16.60;99.90
1778;DHT22;886;50.082;8.222;2023-05-07T05:33:28;16.60;99.90
1778;DHT22;886;50.082;8.222;2023-05-07T05:35:55;16.60;99.90
1778;DHT22;886;50.082;8.222;2023-05-07T05:38:24;16.60;99.90
1778;DHT22;886;50.082;8.222;2023-05-07T05:40:51;16.80;99.90
1778;DHT22;886;50.082;8.222;2023-05-07T05:43:21;16.90;99.90
1778;DHT22;886;50.082;8.222;2023-05-07T05:45:48;16.90;99.90
1778;DHT22;886;50.082;8.222;2023-05-07T05:48:14;17.00;99.90
1778;DHT22;886;50.082;8.222;2023-05-07T05:50:42;17.00;99.90
1778;DHT22;886;50.082;8.222;2023-05-07T05:53:09;17.00;99.90
1778;DHT22;886;50.082;8.222;2023-05-07T05:55:38;16.90;99.90
1778;DHT22;886;50.082;8.222;2023-05-07T05:58:05;17.00;99.90
1778;DHT22;886;50.082;8.222;2023-05-07T06:00:32;17.10;99.90
1778;DHT22;886;50.082;8.222;2023-05-07T06:02:59;17.20;99.90
1778;DHT22;886;50.082;8.222;2023-05-07T06:05:26;17.30;99.90
1778;DHT22;886;50.082;8.222;2023-05-07T06:07:54;17.40;99.90
1778;DHT22;886;50.082;8.222;2023-05-07T06:10:21;17.40;99.90
1778;DHT22;886;50.082;8.222;2023-05-07T06:12:49;17.50;99.90
1778;DHT22;886;50.082;8.222;2023-05-07T06:15:17;17.50;99.90
1778;DHT22;886;50.082;8.222;2023-05-07T06:17:44;17.60;99.90
1778;DHT22;886;50.082;8.222;2023-05-07T06:20:11;17.70;99.90
1778;DHT22;886;50.082;8.222;2023-05-07T06:22:38;17.80;99.80
1778;DHT22;886;50.082;8.222;2023-05-07T06:25:06;17.90;99.10
1778;DHT22;886;50.082;8.222;2023-05-07T06:27:34;18.10;97.80
1778;DHT22;886;50.082;8.222;2023-05-07T06:30:03;18.30;97.60
1778;DHT22;886;50.082;8.222;2023-05-07T06:32:31;18.40;97.00
1778;DHT22;886;50.082;8.222;2023-05-07T06:34:58;18.40;96.80
1778;DHT22;886;50.082;8.222;2023-05-07T06:37:25;18.50;96.70
1778;DHT22;886;50.082;8.222;2023-05-07T06:39:52;18.50;96.30
1778;DHT22;886;50.082;8.222;2023-05-07T06:42:19;18.60;96.10
1778;DHT22;886;50.082;8.222;2023-05-07T06:44:47;18.70;95.60
1778;DHT22;886;50.082;8.222;2023-05-07T06:47:15;18.70;95.60
1778;DHT22;886;50.082;8.222;2023-05-07T06:49:42;18.70;95.60
1778;DHT22;886;50.082;8.222;2023-05-07T06:52:09;18.70;95.30
1778;DHT22;886;50.082;8.222;2023-05-07T06:54:37;18.80;95.30
1778;DHT22;886;50.082;8.222;2023-05-07T06:57:04;18.80;95.50
1778;DHT22;886;50.082;8.222;2023-05-07T06:59:31;18.70;95.30
1778;DHT22;886;50.082;8.222;2023-05-07T07:01:58;18.70;95.20
1778;DHT22;886;50.082;8.222;2023-05-07T07:04:26;18.70;95.20
1778;DHT22;886;50.082;8.222;2023-05-07T07:06:54;18.80;95.20
1778;DHT22;886;50.082;8.222;2023-05-07T07:09:23;18.80;95.00
1778;DHT22;886;50.082;8.222;2023-05-07T07:11:50;18.80;95.10
1778;DHT22;886;50.082;8.222;2023-05-07T07:14:17;18.80;95.20
1778;DHT22;886;50.082;8.222;2023-05-07T07:16:45;18.80;95.70
1778;DHT22;886;50.082;8.222;2023-05-07T07:19:13;18.80;95.40
1778;DHT22;886;50.082;8.222;2023-05-07T07:21:43;18.80;95.00
1778;DHT22;886;50.082;8.222;2023-05-07T07:24:13;18.80;95.10
1778;DHT22;886;50.082;8.222;2023-05-07T07:26:40;18.80;95.20
1778;DHT22;886;50.082;8.222;2023-05-07T07:29:07;18.90;94.80
1778;DHT22;886;50.082;8.222;2023-05-07T07:31:34;18.90;94.80
1778;DHT22;886;50.082;8.222;2023-05-07T07:34:01;18.90;94.50
1778;DHT22;886;50.082;8.222;2023-05-07T07:36:28;19.00;94.40
1778;DHT22;886;50.082;8.222;2023-05-07T07:39:12;19.00;94.50
1778;DHT22;886;50.082;8.222;2023-05-07T07:41:40;19.00;94.60
1778;DHT22;886;50.082;8.222;2023-05-07T07:44:07;19.00;94.50
1778;DHT22;886;50.082;8.222;2023-05-07T07:46:35;19.00;94.60
1778;DHT22;886;50.082;8.222;2023-05-07T07:49:03;19.00;94.50
1778;DHT22;886;50.082;8.222;2023-05-07T07:51:31;19.00;94.40
1778;DHT22;886;50.082;8.222;2023-05-07T07:53:58;18.90;94.50
1778;DHT22;886;50.082;8.222;2023-05-07T07:56:26;19.00;94.60
1778;DHT22;886;50.082;8.222;2023-05-07T07:58:54;19.00;94.50
1778;DHT22;886;50.082;8.222;2023-05-07T08:01:21;19.10;94.50
1778;DHT22;886;50.082;8.222;2023-05-07T08:03:48;19.10;94.40
1778;DHT22;886;50.082;8.222;2023-05-07T08:06:16;19.20;94.70
1778;DHT22;886;50.082;8.222;2023-05-07T08:08:43;19.20;94.40
1778;DHT22;886;50.082;8.222;2023-05-07T08:11:10;19.20;94.30
1778;DHT22;886;50.082;8.222;2023-05-07T08:13:39;19.30;94.50
1778;DHT22;886;50.082;8.222;2023-05-07T08:16:06;19.30;94.40
1778;DHT22;886;50.082;8.222;2023-05-07T08:18:34;19.40;94.50
1778;DHT22;886;50.082;8.222;2023-05-07T08:21:01;19.50;94.40
1778;DHT22;886;50.082;8.222;2023-05-07T08:23:29;19.50;94.40
1778;DHT22;886;50.082;8.222;2023-05-07T08:25:56;19.60;94.30
1778;DHT22;886;50.082;8.222;2023-05-07T08:28:24;19.60;94.10
1778;DHT22;886;50.082;8.222;2023-05-07T08:30:53;19.70;93.70
1778;DHT22;886;50.082;8.222;2023-05-07T08:33:20;19.70;93.80
1778;DHT22;886;50.082;8.222;2023-05-07T08:35:47;19.70;93.60
1778;DHT22;886;50.082;8.222;2023-05-07T08:38:16;19.80;93.70
1778;DHT22;886;50.082;8.222;2023-05-07T08:40:43;19.80;93.60
1778;DHT22;886;50.082;8.222;2023-05-07T08:43:13;19.90;93.80
1778;DHT22;886;50.082;8.222;2023-05-07T08:45:41;19.90;93.80
1778;DHT22;886;50.082;8.222;2023-05-07T08:48:15;20.20;93.70
1778;DHT22;886;50.082;8.222;2023-05-07T08:50:43;20.40;93.60
1778;DHT22;886;50.082;8.222;2023-05-07T08:53:11;20.70;92.90
1778;DHT22;886;50.082;8.222;2023-05-07T08:55:38;20.80;92.60
1778;DHT22;886;50.082;8.222;2023-05-07T08:58:06;20.90;92.70
1778;DHT22;886;50.082;8.222;2023-05-07T09:00:34;21.10;92.60
1778;DHT22;886;50.082;8.222;2023-05-07T09:03:03;21.30;92.40
1778;DHT22;886;50.082;8.222;2023-05-07T09:05:31;21.50;92.00
1778;DHT22;886;50.082;8.222;2023-05-07T09:07:59;21.50;91.60
1778;DHT22;886;50.082;8.222;2023-05-07T09:10:27;21.50;91.70
1778;DHT22;886;50.082;8.222;2023-05-07T09:12:54;21.50;91.80
1778;DHT22;886;50.082;8.222;2023-05-07T09:15:21;21.40;91.90
1778;DHT22;886;50.082;8.222;2023-05-07T09:17:49;21.50;91.90
1778;DHT22;886;50.082;8.222;2023-05-07T09:20:16;21.50;92.00
1778;DHT22;886;50.082;8.222;2023-05-07T09:22:44;21.50;92.10
1778;DHT22;886;50.082;8.222;2023-05-07T09:25:11;21.60;92.40
1778;DHT22;886;50.082;8.222;2023-05-07T09:27:41;21.60;92.00
1778;DHT22;886;50.082;8.222;2023-05-07T09:30:09;21.60;91.90
1778;DHT22;886;50.082;8.222;2023-05-07T09:32:37;21.60;91.80
1778;DHT22;886;50.082;8.222;2023-05-07T09:35:05;21.60;92.00
1778;DHT22;886;50.082;8.222;2023-05-07T09:37:35;21.60;92.00
1778;DHT22;886;50.082;8.222;2023-05-07T09:40:05;21.60;92.10
1778;DHT22;886;50.082;8.222;2023-05-07T09:42:51;21.70;92.20
1778;DHT22;886;50.082;8.222;2023-05-07T09:45:22;21.70;92.00
1778;DHT22;886;50.082;8.222;2023-05-07T09:47:54;21.60;91.80
1778;DHT22;886;50.082;8.222;2023-05-07T09:50:27;21.70;92.10
1778;DHT22;886;50.082;8.222;2023-05-07T09:52:56;21.70;92.30
1778;DHT22;886;50.082;8.222;2023-05-07T09:55:25;21.70;92.50
1778;DHT22;886;50.082;8.222;2023-05-07T09:57:53;21.70;92.20
1778;DHT22;886;50.082;8.222;2023-05-07T10:00:21;21.70;92.20
1778;DHT22;886;50.082;8.222;2023-05-07T10:02:51;21.60;92.30
1778;DHT22;886;50.082;8.222;2023-05-07T10:05:19;21.70;92.30
1778;DHT22;886;50.082;8.222;2023-05-07T10:07:47;21.80;92.40
1778;DHT22;886;50.082;8.222;2023-05-07T10:10:15;21.80;91.70
1778;DHT22;886;50.082;8.222;2023-05-07T10:12:45;21.80;91.90
1778;DHT22;886;50.082;8.222;2023-05-07T10:15:12;21.90;92.10
1778;DHT22;886;50.082;8.222;2023-05-07T10:17:41;22.00;92.10
1778;DHT22;886;50.082;8.222;2023-05-07T10:20:09;22.00;91.70
1778;DHT22;886;50.082;8.222;2023-05-07T10:22:38;22.10;92.00
1778;DHT22;886;50.082;8.222;2023-05-07T10:25:14;22.00;92.30
1778;DHT22;886;50.082;8.222;2023-05-07T10:27:44;22.10;92.50
1778;DHT22;886;50.082;8.222;2023-05-07T10:30:19;22.00;91.90
1778;DHT22;886;50.082;8.222;2023-05-07T10:32:55;22.10;91.90
1778;DHT22;886;50.082;8.222;2023-05-07T10:35:27;22.20;91.90
1778;DHT22;886;50.082;8.222;2023-05-07T10:37:58;22.20;92.40
1778;DHT22;886;50.082;8.222;2023-05-07T10:40:25;22.10;91.80
1778;DHT22;886;50.082;8.222;2023-05-07T10:42:55;22.10;91.70
1778;DHT22;886;50.082;8.222;2023-05-07T10:45:24;22.10;91.70
1778;DHT22;886;50.082;8.222;2023-05-07T10:48:08;22.10;91.70
1778;DHT22;886;50.082;8.222;2023-05-07T10:51:19;22.10;91.90
1778;DHT22;886;50.082;8.222;2023-05-07T10:53:48;22.20;91.50
1778;DHT22;886;50.082;8.222;2023-05-07T10:56:45;22.30;91.60
1778;DHT22;886;50.082;8.222;2023-05-07T10:59:35;22.30;91.30
1778;DHT22;886;50.082;8.222;2023-05-07T11:02:08;22.30;91.20
1778;DHT22;886;50.082;8.222;2023-05-07T11:04:40;22.30;91.20
1778;DHT22;886;50.082;8.222;2023-05-07T11:07:38;22.30;91.70
1778;DHT22;886;50.082;8.222;2023-05-07T11:10:06;22.40;90.90
1778;DHT22;886;50.082;8.222;2023-05-07T11:12:50;22.30;90.80
1778;DHT22;886;50.082;8.222;2023-05-07T11:15:45;22.30;91.00
1778;DHT22;886;50.082;8.222;2023-05-07T11:18:14;22.30;91.20
1778;DHT22;886;50.082;8.222;2023-05-07T11:20:47;22.40;91.10
1778;DHT22;886;50.082;8.222;2023-05-07T11:23:54;22.40;91.00
1778;DHT22;886;50.082;8.222;2023-05-07T11:26:22;22.30;91.20
1778;DHT22;886;50.082;8.222;2023-05-07T11:28:50;22.40;91.20
1778;DHT22;886;50.082;8.222;2023-05-07T11:31:22;22.40;91.20
1778;DHT22;886;50.082;8.222;2023-05-07T11:33:51;22.60;91.10
1778;DHT22;886;50.082;8.222;2023-05-07T11:36:19;22.60;90.80
1778;DHT22;886;50.082;8.222;2023-05-07T11:38:47;22.60;90.60
1778;DHT22;886;50.082;8.222;2023-05-07T11:41:16;22.70;90.50
1778;DHT22;886;50.082;8.222;2023-05-07T11:43:55;22.70;90.10
1778;DHT22;886;50.082;8.222;2023-05-07T11:46:24;22.70;90.10
1778;DHT22;886;50.082;8.222;2023-05-07T11:48:51;22.60;90.10
1778;DHT22;886;50.082;8.222;2023-05-07T11:51:20;22.70;90.20
1778;DHT22;886;50.082;8.222;2023-05-07T11:53:47;22.60;90.40
1778;DHT22;886;50.082;8.222;2023-05-07T11:56:16;22.70;90.30
1778;DHT22;886;50.082;8.222;2023-05-07T11:58:45;22.70;90.20
1778;DHT22;886;50.082;8.222;2023-05-07T12:01:14;22.70;90.10
1778;DHT22;886;50.082;8.222;2023-05-07T12:03:44;22.80;90.00
1778;DHT22;886;50.082;8.222;2023-05-07T12:06:14;22.80;90.00
1778;DHT22;886;50.082;8.222;2023-05-07T12:08:44;22.90;89.70
1778;DHT22;886;50.082;8.222;2023-05-07T12:11:16;22.80;89.70
1778;DHT22;886;50.082;8.222;2023-05-07T12:13:49;22.90;90.00
1778;DHT22;886;50.082;8.222;2023-05-07T12:16:16;22.90;89.80
1778;DHT22;886;50.082;8.222;2023-05-07T12:18:45;22.80;90.00
1778;DHT22;886;50.082;8.222;2023-05-07T12:21:13;22.80;88.90
1778;DHT22;886;50.082;8.222;2023-05-07T12:23:40;22.90;89.40
1778;DHT22;886;50.082;8.222;2023-05-07T12:26:08;22.90;89.60
1778;DHT22;886;50.082;8.222;2023-05-07T12:28:38;23.00;89.70
1778;DHT22;886;50.082;8.222;2023-05-07T12:31:06;23.00;89.80
1778;DHT22;886;50.082;8.222;2023-05-07T12:33:35;23.00;90.00
1778;DHT22;886;50.082;8.222;2023-05-07T12:36:07;22.90;90.00
1778;DHT22;886;50.082;8.222;2023-05-07T12:38:36;23.10;90.00
1778;DHT22;886;50.082;8.222;2023-05-07T12:41:05;23.00;89.70
1778;DHT22;886;50.082;8.222;2023-05-07T12:43:34;23.00;89.30
1778;DHT22;886;50.082;8.222;2023-05-07T12:46:04;23.10;89.40
1778;DHT22;886;50.082;8.222;2023-05-07T12:48:32;23.10;89.90
1778;DHT22;886;50.082;8.222;2023-05-07T12:51:00;23.20;89.10
1778;DHT22;886;50.082;8.222;2023-05-07T12:53:30;23.10;88.90
1778;DHT22;886;50.082;8.222;2023-05-07T12:55:59;23.10;88.90
1778;DHT22;886;50.082;8.222;2023-05-07T12:58:28;23.10;89.10
1778;DHT22;886;50.082;8.222;2023-05-07T13:00:57;23.10;88.80
1778;DHT22;886;50.082;8.222;2023-05-07T13:03:28;23.10;89.00
1778;DHT22;886;50.082;8.222;2023-05-07T13:05:59;23.00;88.50
1778;DHT22;886;50.082;8.222;2023-05-07T13:08:30;23.10;88.10
1778;DHT22;886;50.082;8.222;2023-05-07T13:10:59;23.10;88.20
1778;DHT22;886;50.082;8.222;2023-05-07T13:13:30;23.10;88.00
1778;DHT22;886;50.082;8.222;2023-05-07T13:15:59;23.10;87.90
1778;DHT22;886;50.082;8.222;2023-05-07T13:18:44;23.10;88.00
1778;DHT22;886;50.082;8.222;2023-05-07T13:21:12;23.10;88.30
1778;DHT22;886;50.082;8.222;2023-05-07T13:23:41;23.10;88.50
1778;DHT22;886;50.082;8.222;2023-05-07T13:26:08;23.10;88.60
1778;DHT22;886;50.082;8.222;2023-05-07T13:28:51;23.20;88.80
1778;DHT22;886;50.082;8.222;2023-05-07T13:31:19;23.40;88.30
1778;DHT22;886;50.082;8.222;2023-05-07T13:33:47;23.40;88.20
1778;DHT22;886;50.082;8.222;2023-05-07T13:36:15;23.50;87.40
1778;DHT22;886;50.082;8.222;2023-05-07T13:38:43;23.60;86.70
1778;DHT22;886;50.082;8.222;2023-05-07T13:41:10;23.60;86.60
1778;DHT22;886;50.082;8.222;2023-05-07T13:43:39;23.60;86.10
1778;DHT22;886;50.082;8.222;2023-05-07T13:46:07;23.60;86.30
1778;DHT22;886;50.082;8.222;2023-05-07T13:48:34;23.60;86.30
1778;DHT22;886;50.082;8.222;2023-05-07T13:51:02;23.70;86.60
1778;DHT22;886;50.082;8.222;2023-05-07T13:53:29;23.70;86.60
1778;DHT22;886;50.082;8.222;2023-05-07T13:55:58;23.70;86.70
1778;DHT22;886;50.082;8.222;2023-05-07T13:58:25;23.70;85.90
1778;DHT22;886;50.082;8.222;2023-05-07T14:00:52;23.80;85.50
1778;DHT22;886;50.082;8.222;2023-05-07T14:03:19;23.70;85.60
1778;DHT22;886;50.082;8.222;2023-05-07T14:05:47;23.70;85.80
1778;DHT22;886;50.082;8.222;2023-05-07T14:08:16;23.80;86.30
1778;DHT22;886;50.082;8.222;2023-05-07T14:10:46;23.80;86.40
1778;DHT22;886;50.082;8.222;2023-05-07T14:13:15;23.80;86.10
1778;DHT22;886;50.082;8.222;2023-05-07T14:15:42;23.80;86.10
1778;DHT22;886;50.082;8.222;2023-05-07T14:18:13;23.80;85.50
1778;DHT22;886;50.082;8.222;2023-05-07T14:20:40;23.80;84.30
1778;DHT22;886;50.082;8.222;2023-05-07T14:23:10;23.80;84.10
1778;DHT22;886;50.082;8.222;2023-05-07T14:25:37;23.80;83.90
1778;DHT22;886;50.082;8.222;2023-05-07T14:28:04;23.80;83.90
1778;DHT22;886;50.082;8.222;2023-05-07T14:30:35;23.70;83.70
1778;DHT22;886;50.082;8.222;2023-05-07T14:33:02;23.70;83.70
1778;DHT22;886;50.082;8.222;2023-05-07T14:35:30;23.70;83.80
1778;DHT22;886;50.082;8.222;2023-05-07T14:37:57;23.70;84.00
1778;DHT22;886;50.082;8.222;2023-05-07T14:40:24;23.60;84.20
1778;DHT22;886;50.082;8.222;2023-05-07T14:42:51;23.60;84.20
1778;DHT22;886;50.082;8.222;2023-05-07T14:45:21;23.60;84.70
1778;DHT22;886;50.082;8.222;2023-05-07T14:47:49;23.50;85.00
1778;DHT22;886;50.082;8.222;2023-05-07T14:50:16;23.60;85.20
1778;DHT22;886;50.082;8.222;2023-05-07T14:52:44;23.50;85.00
1778;DHT22;886;50.082;8.222;2023-05-07T14:55:12;23.50;85.10
1778;DHT22;886;50.082;8.222;2023-05-07T14:57:39;23.50;84.80
1778;DHT22;886;50.082;8.222;2023-05-07T15:00:08;23.50;85.00
1778;DHT22;886;50.082;8.222;2023-05-07T15:02:36;23.50;84.70
1778;DHT22;886;50.082;8.222;2023-05-07T15:05:06;23.60;84.80
1778;DHT22;886;50.082;8.222;2023-05-07T15:07:33;23.50;85.00
1778;DHT22;886;50.082;8.222;2023-05-07T15:10:01;23.50;85.10
1778;DHT22;886;50.082;8.222;2023-05-07T15:12:28;23.50;85.20
1778;DHT22;886;50.082;8.222;2023-05-07T15:14:55;23.60;84.90
1778;DHT22;886;50.082;8.222;2023-05-07T15:17:22;23.60;84.20
1778;DHT22;886;50.082;8.222;2023-05-07T15:19:50;23.50;84.20
1778;DHT22;886;50.082;8.222;2023-05-07T15:22:21;23.60;84.20
1778;DHT22;886;50.082;8.222;2023-05-07T15:24:48;23.60;84.10
1778;DHT22;886;50.082;8.222;2023-05-07T15:27:16;23.60;84.00
1778;DHT22;886;50.082;8.222;2023-05-07T15:29:43;23.60;84.20
1778;DHT22;886;50.082;8.222;2023-05-07T15:32:11;23.60;84.20
1778;DHT22;886;50.082;8.222;2023-05-07T15:34:38;23.60;84.20
1778;DHT22;886;50.082;8.222;2023-05-07T15:37:05;23.60;84.20
1778;DHT22;886;50.082;8.222;2023-05-07T15:39:34;23.60;84.20
1778;DHT22;886;50.082;8.222;2023-05-07T15:42:01;23.60;84.20
1778;DHT22;886;50.082;8.222;2023-05-07T15:44:29;23.60;84.00
1778;DHT22;886;50.082;8.222;2023-05-07T15:47:01;23.50;84.10
1778;DHT22;886;50.082;8.222;2023-05-07T15:49:28;23.50;84.10
1778;DHT22;886;50.082;8.222;2023-05-07T15:51:55;23.50;84.60
1778;DHT22;886;50.082;8.222;2023-05-07T15:54:24;23.50;84.60
1778;DHT22;886;50.082;8.222;2023-05-07T15:56:52;23.50;84.70
1778;DHT22;886;50.082;8.222;2023-05-07T15:59:19;23.40;84.90
1778;DHT22;886;50.082;8.222;2023-05-07T16:01:46;23.40;84.90
1778;DHT22;886;50.082;8.222;2023-05-07T16:04:13;23.40;85.10
1778;DHT22;886;50.082;8.222;2023-05-07T16:06:41;23.40;85.10
1778;DHT22;886;50.082;8.222;2023-05-07T16:09:10;23.40;85.20
1778;DHT22;886;50.082;8.222;2023-05-07T16:11:37;23.30;85.30
1778;DHT22;886;50.082;8.222;2023-05-07T16:14:06;23.30;85.20
1778;DHT22;886;50.082;8.222;2023-05-07T16:16:33;23.30;85.00
1778;DHT22;886;50.082;8.222;2023-05-07T16:19:01;23.20;85.20
1778;DHT22;886;50.082;8.222;2023-05-07T16:21:29;23.20;85.60
1778;DHT22;886;50.082;8.222;2023-05-07T16:23:56;23.10;85.80
1778;DHT22;886;50.082;8.222;2023-05-07T16:26:23;23.10;86.00
1778;DHT22;886;50.082;8.222;2023-05-07T16:28:50;23.10;85.90